sensor_id;sensor_type;location;lat;lon;timestamp;P1;durP1;ratioP1;P2;durP2;ratioP2
48703;SDS011;34502;51.296;16.918;2022-12-18T00:01:05;70.20;;;26.95;;
48703;SDS011;34502;51.296;16.918;2022-12-18T00:03:44;73.90;;;26.95;;
48703;SDS011;34502;51.296;16.918;2022-12-18T00:06:11;67.03;;;27.83;;
48703;SDS011;34502;51.296;16.918;2022-12-18T00:08:38;70.88;;;27.40;;
48703;SDS011;34502;51.296;16.918;2022-12-18T00:11:06;77.30;;;30.05;;
48703;SDS011;34502;51.296;16.918;2022-12-18T00:13:33;71.00;;;27.40;;
48703;SDS011;34502;51.296;16.918;2022-12-18T00:16:03;72.05;;;29.95;;
48703;SDS011;34502;51.296;16.918;2022-12-18T00:18:32;69.20;;;29.38;;
48703;SDS011;34502;51.296;16.918;2022-12-18T00:20:59;60.88;;;26.73;;
48703;SDS011;34502;51.296;16.918;2022-12-18T00:23:26;81.07;;;30.90;;
48703;SDS011;34502;51.296;16.918;2022-12-18T00:25:53;82.43;;;32.17;;
48703;SDS011;34502;51.296;16.918;2022-12-18T00:28:19;70.25;;;27.75;;
48703;SDS011;34502;51.296;16.918;2022-12-18T00:30:45;70.53;;;26.65;;
48703;SDS011;34502;51.296;16.918;2022-12-18T00:33:11;61.70;;;24.65;;
48703;SDS011;34502;51.296;16.918;2022-12-18T00:35:38;61.85;;;25.17;;
48703;SDS011;34502;51.296;16.918;2022-12-18T00:38:04;62.95;;;26.77;;
48703;SDS011;34502;51.296;16.918;2022-12-18T00:40:31;60.35;;;25.10;;
48703;SDS011;34502;51.296;16.918;2022-12-18T00:42:57;60.05;;;23.77;;
48703;SDS011;34502;51.296;16.918;2022-12-18T00:45:28;59.92;;;25.10;;
48703;SDS011;34502;51.296;16.918;2022-12-18T00:47:55;59.03;;;23.23;;
48703;SDS011;34502;51.296;16.918;2022-12-18T00:50:22;70.28;;;25.75;;
48703;SDS011;34502;51.296;16.918;2022-12-18T00:52:49;65.88;;;24.55;;
48703;SDS011;34502;51.296;16.918;2022-12-18T00:55:15;69.75;;;25.85;;
48703;SDS011;34502;51.296;16.918;2022-12-18T00:57:42;63.17;;;25.58;;
48703;SDS011;34502;51.296;16.918;2022-12-18T01:00:10;58.97;;;24.90;;
48703;SDS011;34502;51.296;16.918;2022-12-18T01:02:38;68.43;;;26.85;;
48703;SDS011;34502;51.296;16.918;2022-12-18T01:05:04;57.47;;;24.42;;
48703;SDS011;34502;51.296;16.918;2022-12-18T01:07:30;64.03;;;24.65;;
48703;SDS011;34502;51.296;16.918;2022-12-18T01:09:56;69.50;;;26.48;;
48703;SDS011;34502;51.296;16.918;2022-12-18T01:12:23;74.57;;;28.40;;
48703;SDS011;34502;51.296;16.918;2022-12-18T01:14:49;56.92;;;24.98;;
48703;SDS011;34502;51.296;16.918;2022-12-18T01:17:15;62.42;;;27.23;;
48703;SDS011;34502;51.296;16.918;2022-12-18T01:19:41;65.90;;;27.23;;
48703;SDS011;34502;51.296;16.918;2022-12-18T01:22:07;67.85;;;26.52;;
48703;SDS011;34502;51.296;16.918;2022-12-18T01:24:33;57.20;;;24.40;;
48703;SDS011;34502;51.296;16.918;2022-12-18T01:26:59;59.75;;;26.15;;
48703;SDS011;34502;51.296;16.918;2022-12-18T01:29:25;58.08;;;24.98;;
48703;SDS011;34502;51.296;16.918;2022-12-18T01:31:54;65.47;;;25.67;;
48703;SDS011;34502;51.296;16.918;2022-12-18T01:34:20;60.85;;;26.45;;
48703;SDS011;34502;51.296;16.918;2022-12-18T01:36:47;61.60;;;23.30;;
48703;SDS011;34502;51.296;16.918;2022-12-18T01:39:14;54.55;;;23.60;;
48703;SDS011;34502;51.296;16.918;2022-12-18T01:41:41;53.22;;;23.63;;
48703;SDS011;34502;51.296;16.918;2022-12-18T01:47:27;62.80;;;26.40;;
48703;SDS011;34502;51.296;16.918;2022-12-18T01:50:05;56.60;;;23.35;;
48703;SDS011;34502;51.296;16.918;2022-12-18T01:52:32;56.05;;;25.73;;
48703;SDS011;34502;51.296;16.918;2022-12-18T01:54:59;55.63;;;25.33;;
48703;SDS011;34502;51.296;16.918;2022-12-18T01:57:26;64.78;;;25.52;;
48703;SDS011;34502;51.296;16.918;2022-12-18T01:59:53;59.38;;;26.05;;
48703;SDS011;34502;51.296;16.918;2022-12-18T02:02:22;58.35;;;26.35;;
48703;SDS011;34502;51.296;16.918;2022-12-18T02:04:48;57.08;;;25.65;;
48703;SDS011;34502;51.296;16.918;2022-12-18T02:09:46;51.95;;;24.02;;
48703;SDS011;34502;51.296;16.918;2022-12-18T02:12:21;52.08;;;23.48;;
48703;SDS011;34502;51.296;16.918;2022-12-18T02:22:52;55.53;;;25.98;;
48703;SDS011;34502;51.296;16.918;2022-12-18T02:28:15;51.53;;;22.75;;
48703;SDS011;34502;51.296;16.918;2022-12-18T02:30:44;52.13;;;23.23;;
48703;SDS011;34502;51.296;16.918;2022-12-18T02:33:12;57.30;;;23.77;;
48703;SDS011;34502;51.296;16.918;2022-12-18T02:35:39;52.17;;;22.00;;
48703;SDS011;34502;51.296;16.918;2022-12-18T02:38:06;51.78;;;22.10;;
48703;SDS011;34502;51.296;16.918;2022-12-18T02:40:32;48.70;;;22.40;;
48703;SDS011;34502;51.296;16.918;2022-12-18T02:43:02;48.83;;;22.17;;
48703;SDS011;34502;51.296;16.918;2022-12-18T02:45:32;54.45;;;23.25;;
48703;SDS011;34502;51.296;16.918;2022-12-18T02:47:58;49.13;;;22.33;;
48703;SDS011;34502;51.296;16.918;2022-12-18T02:55:35;54.33;;;23.33;;
48703;SDS011;34502;51.296;16.918;2022-12-18T03:01:13;52.60;;;21.50;;
48703;SDS011;34502;51.296;16.918;2022-12-18T03:03:46;51.30;;;22.17;;
48703;SDS011;34502;51.296;16.918;2022-12-18T03:06:32;46.03;;;21.08;;
48703;SDS011;34502;51.296;16.918;2022-12-18T03:09:06;46.97;;;21.90;;
48703;SDS011;34502;51.296;16.918;2022-12-18T03:11:36;46.17;;;21.25;;
48703;SDS011;34502;51.296;16.918;2022-12-18T03:14:23;53.83;;;23.55;;
48703;SDS011;34502;51.296;16.918;2022-12-18T03:16:53;50.08;;;21.70;;
48703;SDS011;34502;51.296;16.918;2022-12-18T03:19:21;45.25;;;21.33;;
48703;SDS011;34502;51.296;16.918;2022-12-18T03:21:49;51.60;;;23.25;;
48703;SDS011;34502;51.296;16.918;2022-12-18T03:24:18;49.20;;;23.02;;
48703;SDS011;34502;51.296;16.918;2022-12-18T03:26:46;49.38;;;22.02;;
48703;SDS011;34502;51.296;16.918;2022-12-18T03:29:16;53.97;;;24.05;;
48703;SDS011;34502;51.296;16.918;2022-12-18T03:31:49;58.80;;;25.48;;
48703;SDS011;34502;51.296;16.918;2022-12-18T03:34:23;50.45;;;23.50;;
48703;SDS011;34502;51.296;16.918;2022-12-18T03:36:54;52.15;;;22.48;;
48703;SDS011;34502;51.296;16.918;2022-12-18T03:39:20;42.22;;;20.55;;
48703;SDS011;34502;51.296;16.918;2022-12-18T03:41:49;48.10;;;21.70;;
48703;SDS011;34502;51.296;16.918;2022-12-18T03:44:28;44.92;;;20.92;;
48703;SDS011;34502;51.296;16.918;2022-12-18T03:49:36;49.25;;;21.55;;
48703;SDS011;34502;51.296;16.918;2022-12-18T03:54:51;46.83;;;21.02;;
48703;SDS011;34502;51.296;16.918;2022-12-18T03:57:18;52.42;;;21.52;;
48703;SDS011;34502;51.296;16.918;2022-12-18T03:59:46;47.75;;;21.20;;
48703;SDS011;34502;51.296;16.918;2022-12-18T04:02:15;44.90;;;19.20;;
48703;SDS011;34502;51.296;16.918;2022-12-18T04:04:42;47.58;;;19.77;;
48703;SDS011;34502;51.296;16.918;2022-12-18T04:07:09;41.10;;;20.17;;
48703;SDS011;34502;51.296;16.918;2022-12-18T04:09:36;40.50;;;19.17;;
48703;SDS011;34502;51.296;16.918;2022-12-18T04:12:04;46.30;;;19.98;;
48703;SDS011;34502;51.296;16.918;2022-12-18T04:14:30;51.28;;;19.90;;
48703;SDS011;34502;51.296;16.918;2022-12-18T04:17:00;43.95;;;19.30;;
48703;SDS011;34502;51.296;16.918;2022-12-18T04:19:27;46.47;;;20.80;;
48703;SDS011;34502;51.296;16.918;2022-12-18T04:21:53;41.92;;;19.52;;
48703;SDS011;34502;51.296;16.918;2022-12-18T04:24:19;52.50;;;21.50;;
48703;SDS011;34502;51.296;16.918;2022-12-18T04:26:45;38.88;;;17.63;;
48703;SDS011;34502;51.296;16.918;2022-12-18T04:29:11;43.42;;;18.90;;
48703;SDS011;34502;51.296;16.918;2022-12-18T04:31:38;45.35;;;18.80;;
48703;SDS011;34502;51.296;16.918;2022-12-18T04:34:04;45.55;;;19.35;;
48703;SDS011;34502;51.296;16.918;2022-12-18T04:36:30;43.13;;;19.80;;
48703;SDS011;34502;51.296;16.918;2022-12-18T04:38:56;37.42;;;18.60;;
48703;SDS011;34502;51.296;16.918;2022-12-18T04:41:22;42.83;;;18.63;;
48703;SDS011;34502;51.296;16.918;2022-12-18T04:43:48;41.58;;;19.83;;
48703;SDS011;34502;51.296;16.918;2022-12-18T04:46:14;41.25;;;17.90;;
48703;SDS011;34502;51.296;16.918;2022-12-18T04:48:40;48.00;;;19.92;;
48703;SDS011;34502;51.296;16.918;2022-12-18T04:51:08;42.05;;;19.83;;
48703;SDS011;34502;51.296;16.918;2022-12-18T04:53:34;41.03;;;19.30;;
48703;SDS011;34502;51.296;16.918;2022-12-18T04:56:07;45.30;;;19.80;;
48703;SDS011;34502;51.296;16.918;2022-12-18T04:58:36;42.03;;;19.00;;
48703;SDS011;34502;51.296;16.918;2022-12-18T05:01:02;48.28;;;19.80;;
48703;SDS011;34502;51.296;16.918;2022-12-18T05:03:29;41.88;;;20.17;;
48703;SDS011;34502;51.296;16.918;2022-12-18T05:05:55;44.85;;;19.73;;
48703;SDS011;34502;51.296;16.918;2022-12-18T05:08:21;47.58;;;21.23;;
48703;SDS011;34502;51.296;16.918;2022-12-18T05:10:47;43.33;;;21.35;;
48703;SDS011;34502;51.296;16.918;2022-12-18T05:13:13;42.58;;;19.55;;
48703;SDS011;34502;51.296;16.918;2022-12-18T05:15:39;46.38;;;20.73;;
48703;SDS011;34502;51.296;16.918;2022-12-18T05:18:06;47.30;;;21.52;;
48703;SDS011;34502;51.296;16.918;2022-12-18T05:20:33;47.17;;;22.77;;
48703;SDS011;34502;51.296;16.918;2022-12-18T05:22:59;50.63;;;22.58;;
48703;SDS011;34502;51.296;16.918;2022-12-18T05:25:25;49.97;;;23.50;;
48703;SDS011;34502;51.296;16.918;2022-12-18T05:27:51;55.03;;;23.83;;
48703;SDS011;34502;51.296;16.918;2022-12-18T05:30:17;49.75;;;22.23;;
48703;SDS011;34502;51.296;16.918;2022-12-18T05:32:43;53.92;;;21.80;;
48703;SDS011;34502;51.296;16.918;2022-12-18T05:35:10;61.33;;;25.85;;
48703;SDS011;34502;51.296;16.918;2022-12-18T05:37:36;56.83;;;23.00;;
48703;SDS011;34502;51.296;16.918;2022-12-18T05:40:03;54.55;;;25.75;;
48703;SDS011;34502;51.296;16.918;2022-12-18T05:42:30;49.10;;;21.33;;
48703;SDS011;34502;51.296;16.918;2022-12-18T05:44:56;53.38;;;24.10;;
48703;SDS011;34502;51.296;16.918;2022-12-18T05:47:22;52.25;;;21.13;;
48703;SDS011;34502;51.296;16.918;2022-12-18T05:49:48;51.83;;;23.48;;
48703;SDS011;34502;51.296;16.918;2022-12-18T05:52:14;50.95;;;23.30;;
48703;SDS011;34502;51.296;16.918;2022-12-18T05:54:41;41.22;;;20.27;;
48703;SDS011;34502;51.296;16.918;2022-12-18T05:57:07;53.22;;;22.65;;
48703;SDS011;34502;51.296;16.918;2022-12-18T05:59:33;48.40;;;24.05;;
48703;SDS011;34502;51.296;16.918;2022-12-18T06:01:59;46.67;;;22.35;;
48703;SDS011;34502;51.296;16.918;2022-12-18T06:04:26;53.38;;;23.58;;
48703;SDS011;34502;51.296;16.918;2022-12-18T06:06:55;50.30;;;21.70;;
48703;SDS011;34502;51.296;16.918;2022-12-18T06:09:22;47.88;;;21.52;;
48703;SDS011;34502;51.296;16.918;2022-12-18T06:11:48;51.08;;;22.83;;
48703;SDS011;34502;51.296;16.918;2022-12-18T06:14:14;47.10;;;22.05;;
48703;SDS011;34502;51.296;16.918;2022-12-18T06:16:42;52.15;;;21.73;;
48703;SDS011;34502;51.296;16.918;2022-12-18T06:19:12;50.25;;;22.85;;
48703;SDS011;34502;51.296;16.918;2022-12-18T06:21:40;59.17;;;22.50;;
48703;SDS011;34502;51.296;16.918;2022-12-18T06:24:06;52.63;;;23.30;;
48703;SDS011;34502;51.296;16.918;2022-12-18T06:26:32;46.78;;;21.60;;
48703;SDS011;34502;51.296;16.918;2022-12-18T06:28:58;49.65;;;22.25;;
48703;SDS011;34502;51.296;16.918;2022-12-18T06:31:26;52.53;;;22.45;;
48703;SDS011;34502;51.296;16.918;2022-12-18T06:33:52;51.97;;;21.98;;
48703;SDS011;34502;51.296;16.918;2022-12-18T06:36:18;54.80;;;23.77;;
48703;SDS011;34502;51.296;16.918;2022-12-18T06:38:45;52.63;;;23.73;;
48703;SDS011;34502;51.296;16.918;2022-12-18T06:41:12;54.38;;;23.52;;
48703;SDS011;34502;51.296;16.918;2022-12-18T06:43:40;47.53;;;21.15;;
48703;SDS011;34502;51.296;16.918;2022-12-18T06:46:06;43.10;;;21.17;;
48703;SDS011;34502;51.296;16.918;2022-12-18T06:48:33;48.30;;;22.25;;
48703;SDS011;34502;51.296;16.918;2022-12-18T06:50:59;47.50;;;21.65;;
48703;SDS011;34502;51.296;16.918;2022-12-18T06:53:25;47.90;;;21.52;;
48703;SDS011;34502;51.296;16.918;2022-12-18T06:55:51;50.78;;;20.10;;
48703;SDS011;34502;51.296;16.918;2022-12-18T06:58:17;52.25;;;21.45;;
48703;SDS011;34502;51.296;16.918;2022-12-18T07:00:44;49.00;;;21.45;;
48703;SDS011;34502;51.296;16.918;2022-12-18T07:03:10;50.55;;;21.48;;
48703;SDS011;34502;51.296;16.918;2022-12-18T07:05:40;50.20;;;23.40;;
48703;SDS011;34502;51.296;16.918;2022-12-18T07:08:06;50.75;;;22.25;;
48703;SDS011;34502;51.296;16.918;2022-12-18T07:10:32;52.88;;;22.27;;
48703;SDS011;34502;51.296;16.918;2022-12-18T07:12:58;44.10;;;20.08;;
48703;SDS011;34502;51.296;16.918;2022-12-18T07:15:24;45.88;;;20.42;;
48703;SDS011;34502;51.296;16.918;2022-12-18T07:17:50;51.70;;;20.55;;
48703;SDS011;34502;51.296;16.918;2022-12-18T07:20:16;50.08;;;22.65;;
48703;SDS011;34502;51.296;16.918;2022-12-18T07:22:43;50.65;;;21.73;;
48703;SDS011;34502;51.296;16.918;2022-12-18T07:25:09;50.17;;;23.02;;
48703;SDS011;34502;51.296;16.918;2022-12-18T07:27:35;50.10;;;22.25;;
48703;SDS011;34502;51.296;16.918;2022-12-18T07:30:01;49.83;;;22.17;;
48703;SDS011;34502;51.296;16.918;2022-12-18T07:32:27;54.78;;;23.35;;
48703;SDS011;34502;51.296;16.918;2022-12-18T07:34:55;56.47;;;23.80;;
48703;SDS011;34502;51.296;16.918;2022-12-18T07:37:21;53.17;;;24.30;;
48703;SDS011;34502;51.296;16.918;2022-12-18T07:39:47;48.10;;;23.48;;
48703;SDS011;34502;51.296;16.918;2022-12-18T07:42:13;51.30;;;24.13;;
48703;SDS011;34502;51.296;16.918;2022-12-18T07:45:00;55.05;;;24.67;;
48703;SDS011;34502;51.296;16.918;2022-12-18T07:47:27;52.75;;;24.00;;
48703;SDS011;34502;51.296;16.918;2022-12-18T07:49:58;53.03;;;23.35;;
48703;SDS011;34502;51.296;16.918;2022-12-18T07:52:25;55.50;;;25.25;;
48703;SDS011;34502;51.296;16.918;2022-12-18T07:54:51;50.50;;;24.83;;
48703;SDS011;34502;51.296;16.918;2022-12-18T07:57:17;52.70;;;24.52;;
48703;SDS011;34502;51.296;16.918;2022-12-18T07:59:43;48.00;;;23.25;;
48703;SDS011;34502;51.296;16.918;2022-12-18T08:02:09;48.75;;;23.48;;
48703;SDS011;34502;51.296;16.918;2022-12-18T08:04:36;56.17;;;26.60;;
48703;SDS011;34502;51.296;16.918;2022-12-18T08:07:02;50.72;;;24.50;;
48703;SDS011;34502;51.296;16.918;2022-12-18T08:09:28;56.97;;;24.40;;
48703;SDS011;34502;51.296;16.918;2022-12-18T08:11:54;57.03;;;27.33;;
48703;SDS011;34502;51.296;16.918;2022-12-18T08:14:20;59.67;;;26.75;;
48703;SDS011;34502;51.296;16.918;2022-12-18T08:16:46;61.35;;;28.70;;
48703;SDS011;34502;51.296;16.918;2022-12-18T08:19:12;54.78;;;27.23;;
48703;SDS011;34502;51.296;16.918;2022-12-18T08:21:39;65.10;;;29.63;;
48703;SDS011;34502;51.296;16.918;2022-12-18T08:24:05;61.72;;;28.33;;
48703;SDS011;34502;51.296;16.918;2022-12-18T08:26:31;68.30;;;29.10;;
48703;SDS011;34502;51.296;16.918;2022-12-18T08:28:58;63.83;;;29.20;;
48703;SDS011;34502;51.296;16.918;2022-12-18T08:31:25;72.78;;;31.67;;
48703;SDS011;34502;51.296;16.918;2022-12-18T08:33:53;73.28;;;32.10;;
48703;SDS011;34502;51.296;16.918;2022-12-18T08:36:20;62.85;;;29.60;;
48703;SDS011;34502;51.296;16.918;2022-12-18T08:38:46;70.47;;;32.40;;
48703;SDS011;34502;51.296;16.918;2022-12-18T08:41:13;71.68;;;31.25;;
48703;SDS011;34502;51.296;16.918;2022-12-18T08:43:40;73.95;;;32.33;;
48703;SDS011;34502;51.296;16.918;2022-12-18T08:46:26;64.35;;;31.55;;
48703;SDS011;34502;51.296;16.918;2022-12-18T08:48:56;71.68;;;32.40;;
48703;SDS011;34502;51.296;16.918;2022-12-18T08:51:22;69.80;;;33.72;;
48703;SDS011;34502;51.296;16.918;2022-12-18T08:53:48;69.68;;;33.40;;
48703;SDS011;34502;51.296;16.918;2022-12-18T08:56:14;75.40;;;35.08;;
48703;SDS011;34502;51.296;16.918;2022-12-18T08:58:42;69.55;;;33.70;;
48703;SDS011;34502;51.296;16.918;2022-12-18T09:01:09;70.18;;;33.10;;
48703;SDS011;34502;51.296;16.918;2022-12-18T09:03:36;82.13;;;39.65;;
48703;SDS011;34502;51.296;16.918;2022-12-18T09:06:02;67.30;;;34.33;;
48703;SDS011;34502;51.296;16.918;2022-12-18T09:08:29;66.03;;;34.10;;
48703;SDS011;34502;51.296;16.918;2022-12-18T09:10:55;61.45;;;30.42;;
48703;SDS011;34502;51.296;16.918;2022-12-18T09:13:21;63.58;;;30.25;;
48703;SDS011;34502;51.296;16.918;2022-12-18T09:15:49;58.72;;;29.35;;
48703;SDS011;34502;51.296;16.918;2022-12-18T09:18:16;68.35;;;33.13;;
48703;SDS011;34502;51.296;16.918;2022-12-18T09:20:44;58.17;;;29.10;;
48703;SDS011;34502;51.296;16.918;2022-12-18T09:23:11;60.45;;;29.73;;
48703;SDS011;34502;51.296;16.918;2022-12-18T09:25:37;65.15;;;31.50;;
48703;SDS011;34502;51.296;16.918;2022-12-18T09:28:13;62.92;;;31.00;;
48703;SDS011;34502;51.296;16.918;2022-12-18T09:30:42;58.50;;;30.08;;
48703;SDS011;34502;51.296;16.918;2022-12-18T09:33:10;90.60;;;46.75;;
48703;SDS011;34502;51.296;16.918;2022-12-18T09:35:36;72.82;;;39.63;;
48703;SDS011;34502;51.296;16.918;2022-12-18T09:38:03;77.03;;;39.42;;
48703;SDS011;34502;51.296;16.918;2022-12-18T09:40:32;73.35;;;37.22;;
48703;SDS011;34502;51.296;16.918;2022-12-18T09:43:03;66.22;;;32.55;;
48703;SDS011;34502;51.296;16.918;2022-12-18T09:45:40;66.93;;;34.50;;
48703;SDS011;34502;51.296;16.918;2022-12-18T09:48:10;68.78;;;34.10;;
48703;SDS011;34502;51.296;16.918;2022-12-18T09:50:44;57.20;;;28.00;;
48703;SDS011;34502;51.296;16.918;2022-12-18T09:53:15;62.90;;;32.13;;
48703;SDS011;34502;51.296;16.918;2022-12-18T09:55:47;61.47;;;29.90;;
48703;SDS011;34502;51.296;16.918;2022-12-18T10:01:12;60.42;;;29.17;;
48703;SDS011;34502;51.296;16.918;2022-12-18T10:03:41;65.45;;;33.53;;
48703;SDS011;34502;51.296;16.918;2022-12-18T10:06:15;58.25;;;29.42;;
48703;SDS011;34502;51.296;16.918;2022-12-18T10:09:09;58.08;;;29.63;;
48703;SDS011;34502;51.296;16.918;2022-12-18T10:14:57;49.92;;;26.50;;
48703;SDS011;34502;51.296;16.918;2022-12-18T10:17:50;56.05;;;28.15;;
48703;SDS011;34502;51.296;16.918;2022-12-18T10:22:57;56.35;;;29.08;;
48703;SDS011;34502;51.296;16.918;2022-12-18T10:26:01;63.55;;;31.48;;
48703;SDS011;34502;51.296;16.918;2022-12-18T10:28:30;55.47;;;27.05;;
48703;SDS011;34502;51.296;16.918;2022-12-18T10:30:58;49.30;;;26.10;;
48703;SDS011;34502;51.296;16.918;2022-12-18T10:33:28;57.22;;;28.58;;
48703;SDS011;34502;51.296;16.918;2022-12-18T10:35:56;64.87;;;28.43;;
48703;SDS011;34502;51.296;16.918;2022-12-18T10:43:35;59.88;;;28.83;;
48703;SDS011;34502;51.296;16.918;2022-12-18T10:48:39;61.92;;;29.38;;
48703;SDS011;34502;51.296;16.918;2022-12-18T10:54:03;57.63;;;29.35;;
48703;SDS011;34502;51.296;16.918;2022-12-18T10:56:30;55.63;;;27.92;;
48703;SDS011;34502;51.296;16.918;2022-12-18T11:01:53;59.03;;;30.70;;
48703;SDS011;34502;51.296;16.918;2022-12-18T11:06:57;57.65;;;30.17;;
48703;SDS011;34502;51.296;16.918;2022-12-18T11:09:31;53.38;;;28.00;;
48703;SDS011;34502;51.296;16.918;2022-12-18T11:12:04;56.67;;;28.05;;
48703;SDS011;34502;51.296;16.918;2022-12-18T11:14:47;52.25;;;26.88;;
48703;SDS011;34502;51.296;16.918;2022-12-18T11:20:20;59.00;;;30.10;;
48703;SDS011;34502;51.296;16.918;2022-12-18T11:22:58;71.72;;;34.75;;
48703;SDS011;34502;51.296;16.918;2022-12-18T11:25:25;58.25;;;31.55;;
48703;SDS011;34502;51.296;16.918;2022-12-18T11:27:55;63.15;;;31.70;;
48703;SDS011;34502;51.296;16.918;2022-12-18T11:30:30;59.23;;;30.73;;
48703;SDS011;34502;51.296;16.918;2022-12-18T11:33:01;63.00;;;31.38;;
48703;SDS011;34502;51.296;16.918;2022-12-18T11:35:39;55.95;;;29.52;;
48703;SDS011;34502;51.296;16.918;2022-12-18T11:38:13;55.38;;;28.83;;
48703;SDS011;34502;51.296;16.918;2022-12-18T11:40:50;62.10;;;28.52;;
48703;SDS011;34502;51.296;16.918;2022-12-18T11:43:34;56.20;;;28.08;;
48703;SDS011;34502;51.296;16.918;2022-12-18T11:46:13;61.78;;;29.40;;
48703;SDS011;34502;51.296;16.918;2022-12-18T11:48:45;59.67;;;28.63;;
48703;SDS011;34502;51.296;16.918;2022-12-18T11:51:20;57.22;;;28.48;;
48703;SDS011;34502;51.296;16.918;2022-12-18T11:53:57;64.90;;;30.23;;
48703;SDS011;34502;51.296;16.918;2022-12-18T12:09:55;65.10;;;30.15;;
48703;SDS011;34502;51.296;16.918;2022-12-18T12:12:44;71.47;;;32.50;;
48703;SDS011;34502;51.296;16.918;2022-12-18T12:15:30;70.03;;;31.73;;
48703;SDS011;34502;51.296;16.918;2022-12-18T12:21:03;63.55;;;30.98;;
48703;SDS011;34502;51.296;16.918;2022-12-18T12:26:26;71.50;;;33.88;;
48703;SDS011;34502;51.296;16.918;2022-12-18T12:29:19;79.65;;;37.42;;
48703;SDS011;34502;51.296;16.918;2022-12-18T12:32:05;71.57;;;34.55;;
48703;SDS011;34502;51.296;16.918;2022-12-18T12:40:31;69.60;;;30.55;;
48703;SDS011;34502;51.296;16.918;2022-12-18T12:43:03;72.80;;;34.50;;
48703;SDS011;34502;51.296;16.918;2022-12-18T12:45:42;79.65;;;38.20;;
48703;SDS011;34502;51.296;16.918;2022-12-18T12:51:11;76.43;;;34.03;;
48703;SDS011;34502;51.296;16.918;2022-12-18T12:53:44;80.38;;;35.75;;
48703;SDS011;34502;51.296;16.918;2022-12-18T12:56:12;84.25;;;36.97;;
48703;SDS011;34502;51.296;16.918;2022-12-18T13:07:05;77.20;;;35.15;;
48703;SDS011;34502;51.296;16.918;2022-12-18T13:18:22;82.30;;;36.63;;
48703;SDS011;34502;51.296;16.918;2022-12-18T13:20:50;79.07;;;36.15;;
48703;SDS011;34502;51.296;16.918;2022-12-18T13:23:29;76.90;;;36.55;;
48703;SDS011;34502;51.296;16.918;2022-12-18T13:31:11;76.93;;;35.05;;
48703;SDS011;34502;51.296;16.918;2022-12-18T13:33:38;69.63;;;33.97;;
48703;SDS011;34502;51.296;16.918;2022-12-18T13:36:12;80.43;;;37.40;;
48703;SDS011;34502;51.296;16.918;2022-12-18T13:38:39;82.30;;;39.88;;
48703;SDS011;34502;51.296;16.918;2022-12-18T13:43:55;76.43;;;36.38;;
48703;SDS011;34502;51.296;16.918;2022-12-18T13:46:30;87.13;;;37.83;;
48703;SDS011;34502;51.296;16.918;2022-12-18T13:51:48;78.30;;;37.22;;
48703;SDS011;34502;51.296;16.918;2022-12-18T13:54:21;80.60;;;38.58;;
48703;SDS011;34502;51.296;16.918;2022-12-18T13:57:24;80.13;;;36.95;;
48703;SDS011;34502;51.296;16.918;2022-12-18T13:59:52;75.85;;;36.55;;
48703;SDS011;34502;51.296;16.918;2022-12-18T14:02:22;79.38;;;35.63;;
48703;SDS011;34502;51.296;16.918;2022-12-18T14:04:50;78.43;;;35.78;;
48703;SDS011;34502;51.296;16.918;2022-12-18T14:07:18;86.00;;;37.50;;
48703;SDS011;34502;51.296;16.918;2022-12-18T14:09:57;83.18;;;38.05;;
48703;SDS011;34502;51.296;16.918;2022-12-18T14:12:26;78.80;;;33.65;;
48703;SDS011;34502;51.296;16.918;2022-12-18T14:17:52;74.78;;;34.08;;
48703;SDS011;34502;51.296;16.918;2022-12-18T14:20:33;78.57;;;34.33;;
48703;SDS011;34502;51.296;16.918;2022-12-18T14:23:00;76.18;;;35.10;;
48703;SDS011;34502;51.296;16.918;2022-12-18T14:25:27;74.55;;;34.10;;
48703;SDS011;34502;51.296;16.918;2022-12-18T14:28:09;70.53;;;30.98;;
48703;SDS011;34502;51.296;16.918;2022-12-18T14:30:39;80.70;;;33.03;;
48703;SDS011;34502;51.296;16.918;2022-12-18T14:33:11;79.10;;;33.63;;
48703;SDS011;34502;51.296;16.918;2022-12-18T14:35:52;79.78;;;34.55;;
48703;SDS011;34502;51.296;16.918;2022-12-18T14:38:34;82.28;;;33.33;;
48703;SDS011;34502;51.296;16.918;2022-12-18T14:41:05;75.82;;;33.53;;
48703;SDS011;34502;51.296;16.918;2022-12-18T14:43:35;77.35;;;34.22;;
48703;SDS011;34502;51.296;16.918;2022-12-18T14:46:02;73.03;;;34.22;;
48703;SDS011;34502;51.296;16.918;2022-12-18T14:49:24;78.40;;;36.17;;
48703;SDS011;34502;51.296;16.918;2022-12-18T14:51:55;75.57;;;35.13;;
48703;SDS011;34502;51.296;16.918;2022-12-18T14:54:25;85.90;;;36.83;;
48703;SDS011;34502;51.296;16.918;2022-12-18T14:59:45;81.50;;;35.95;;
48703;SDS011;34502;51.296;16.918;2022-12-18T15:04:47;80.72;;;36.42;;
48703;SDS011;34502;51.296;16.918;2022-12-18T15:07:24;83.80;;;37.60;;
48703;SDS011;34502;51.296;16.918;2022-12-18T15:12:37;75.10;;;36.60;;
48703;SDS011;34502;51.296;16.918;2022-12-18T15:20:56;104.45;;;48.42;;
48703;SDS011;34502;51.296;16.918;2022-12-18T15:23:36;86.88;;;40.67;;
48703;SDS011;34502;51.296;16.918;2022-12-18T15:26:13;86.03;;;39.42;;
48703;SDS011;34502;51.296;16.918;2022-12-18T15:28:44;87.60;;;39.15;;
48703;SDS011;34502;51.296;16.918;2022-12-18T15:36:18;91.05;;;39.75;;
48703;SDS011;34502;51.296;16.918;2022-12-18T15:38:49;96.80;;;41.42;;
48703;SDS011;34502;51.296;16.918;2022-12-18T15:41:16;104.18;;;45.83;;
48703;SDS011;34502;51.296;16.918;2022-12-18T15:43:44;103.75;;;42.30;;
48703;SDS011;34502;51.296;16.918;2022-12-18T15:46:12;106.30;;;43.35;;
48703;SDS011;34502;51.296;16.918;2022-12-18T15:53:43;105.18;;;47.17;;
48703;SDS011;34502;51.296;16.918;2022-12-18T15:56:10;110.65;;;47.65;;
48703;SDS011;34502;51.296;16.918;2022-12-18T15:58:55;101.57;;;45.75;;
48703;SDS011;34502;51.296;16.918;2022-12-18T16:01:28;113.55;;;48.40;;
48703;SDS011;34502;51.296;16.918;2022-12-18T16:03:56;103.80;;;45.10;;
48703;SDS011;34502;51.296;16.918;2022-12-18T16:06:22;126.47;;;52.97;;
48703;SDS011;34502;51.296;16.918;2022-12-18T16:08:49;124.13;;;49.53;;
48703;SDS011;34502;51.296;16.918;2022-12-18T16:11:20;111.90;;;45.58;;
48703;SDS011;34502;51.296;16.918;2022-12-18T16:16:46;116.57;;;46.75;;
48703;SDS011;34502;51.296;16.918;2022-12-18T16:19:16;88.30;;;38.17;;
48703;SDS011;34502;51.296;16.918;2022-12-18T16:21:43;113.47;;;47.92;;
48703;SDS011;34502;51.296;16.918;2022-12-18T16:24:13;115.20;;;48.33;;
48703;SDS011;34502;51.296;16.918;2022-12-18T16:26:41;108.37;;;45.87;;
48703;SDS011;34502;51.296;16.918;2022-12-18T16:29:07;111.70;;;46.72;;
48703;SDS011;34502;51.296;16.918;2022-12-18T16:31:34;118.60;;;45.63;;
48703;SDS011;34502;51.296;16.918;2022-12-18T16:34:13;103.90;;;43.03;;
48703;SDS011;34502;51.296;16.918;2022-12-18T16:36:57;101.57;;;43.92;;
48703;SDS011;34502;51.296;16.918;2022-12-18T16:39:24;102.78;;;44.47;;
48703;SDS011;34502;51.296;16.918;2022-12-18T16:41:51;106.63;;;47.58;;
48703;SDS011;34502;51.296;16.918;2022-12-18T16:44:17;103.57;;;43.42;;
48703;SDS011;34502;51.296;16.918;2022-12-18T16:46:45;127.32;;;53.17;;